RJBB

Kansai International Airport

Airport
ICAO code
RJBB
IATA Code
KIX
Summary
ICAO Region
APAC
ICAO Territory
Location

Osaka Bay, Osaka Prefecture

Serving
Greater Osaka area
Elevation
17 ft
Coordinates
34° 25' 50" N , 135° 13' 49" E
KCC
Metar
Observation
RJBB 260830Z 21003KT 170V250 9999 FEW025 26/21 Q1013 NOSIG
Station
Kansai International Airport
Date/Time
2022-09-26 08:30:00
Wind direction
210°
Wind speed
03 kts
Lowest cloud amount
few clouds
Temperature
26°C
Dew point
21°C
Humidity
74%
QNH
1013 hPa
Weather condition
n/a

Kansai International Airport is an international airport located on an artificial island in the middle of Osaka Bay, 38 km southwest of Ōsaka Station, off the shore of the cities of Sennan and Izumisano and the town of Tajiri in Osaka Prefecture, Japan. It should not be confused with Osaka International Airport, which is closer to the city and now handles only domestic flights.

Climatology

Humid subtropical climate (Köppen climate classification Cfa).

Runways

Designator Length Width Surface Rops
6/24 3500 61 ASP Yes/Yes

Airport map

Aerial View

SKYbrary Partners:

Safety knowledge contributed by: